createdAt,value
2022-08-30T00:00:35.161Z,17.30
2022-08-30T00:03:41.084Z,17.20
2022-08-30T00:06:44.192Z,17.20
2022-08-30T00:09:47.330Z,17.10
2022-08-30T00:12:51.769Z,17.20
2022-08-30T00:15:55.245Z,17.20
2022-08-30T00:18:58.375Z,17.20
2022-08-30T00:22:01.398Z,17.20
2022-08-30T00:25:04.713Z,17.20
2022-08-30T00:28:09.698Z,17.30
2022-08-30T00:31:15.316Z,17.30
2022-08-30T00:34:18.761Z,17.30
2022-08-30T00:37:21.855Z,17.30
2022-08-30T00:40:27.514Z,17.30
2022-08-30T00:43:36.775Z,17.30
2022-08-30T00:46:40.092Z,17.30
2022-08-30T00:49:47.523Z,17.30
2022-08-30T00:52:54.103Z,17.30
2022-08-30T00:55:58.498Z,17.30
2022-08-30T00:59:07.096Z,17.30
2022-08-30T01:02:10.394Z,17.30
2022-08-30T01:05:15.955Z,17.30
2022-08-30T01:08:20.430Z,17.20
2022-08-30T01:11:25.577Z,17.20
2022-08-30T01:14:31.847Z,17.20
2022-08-30T01:17:35.254Z,17.30
2022-08-30T01:20:44.630Z,17.30
2022-08-30T01:23:51.459Z,17.30
2022-08-30T01:26:55.703Z,17.20
2022-08-30T01:29:59.462Z,17.20
2022-08-30T01:33:05.039Z,17.10
2022-08-30T01:36:12.336Z,17.10
2022-08-30T01:39:18.969Z,17.20
2022-08-30T01:42:22.289Z,17.20
2022-08-30T01:45:25.488Z,17.20
2022-08-30T01:48:31.243Z,17.20
2022-08-30T01:51:34.746Z,17.10
2022-08-30T01:54:40.720Z,17.00
2022-08-30T01:57:43.770Z,17.00
2022-08-30T02:00:46.940Z,17.00
2022-08-30T02:03:50.008Z,17.00
2022-08-30T02:06:53.255Z,17.00
2022-08-30T02:09:57.665Z,17.10
2022-08-30T02:13:00.714Z,17.10
2022-08-30T02:16:03.836Z,17.10
2022-08-30T02:19:07.218Z,17.10
2022-08-30T02:22:10.322Z,17.20
2022-08-30T02:25:20.566Z,17.10
2022-08-30T02:28:25.679Z,17.00
2022-08-30T02:31:28.731Z,17.00
2022-08-30T02:34:31.758Z,16.90
2022-08-30T02:37:34.800Z,16.90
2022-08-30T02:40:39.361Z,16.80
2022-08-30T02:43:42.435Z,16.80
2022-08-30T02:46:45.833Z,16.80
2022-08-30T02:49:48.867Z,16.80
2022-08-30T02:52:51.994Z,16.80
2022-08-30T02:55:58.804Z,16.90
2022-08-30T02:59:02.850Z,16.90
2022-08-30T03:02:05.984Z,16.80
2022-08-30T03:05:10.074Z,16.90
2022-08-30T03:08:13.231Z,16.80
2022-08-30T03:11:17.643Z,16.70
2022-08-30T03:14:20.803Z,16.80
2022-08-30T03:17:23.862Z,16.70
2022-08-30T03:20:27.034Z,16.80
2022-08-30T03:23:30.126Z,16.80
2022-08-30T03:26:34.636Z,16.70
2022-08-30T03:29:37.662Z,16.70
2022-08-30T03:32:41.137Z,16.70
2022-08-30T03:35:46.250Z,16.70
2022-08-30T03:38:49.247Z,16.70
2022-08-30T03:41:53.751Z,16.80
2022-08-30T03:44:56.871Z,16.70
2022-08-30T03:48:00.209Z,16.80
2022-08-30T03:51:03.226Z,16.90
2022-08-30T03:54:09.905Z,16.80
2022-08-30T03:57:19.676Z,16.80
2022-08-30T04:00:24.015Z,16.70
2022-08-30T04:03:27.044Z,16.70
2022-08-30T04:06:30.091Z,16.70
2022-08-30T04:09:33.150Z,16.70
2022-08-30T04:12:38.734Z,16.70
2022-08-30T04:15:42.011Z,16.70
2022-08-30T04:18:45.010Z,16.60
2022-08-30T04:21:48.130Z,16.60
2022-08-30T04:24:51.159Z,16.60
2022-08-30T04:27:55.899Z,16.60
2022-08-30T04:30:59.098Z,16.60
2022-08-30T04:34:02.127Z,16.60
2022-08-30T04:37:05.233Z,16.60
2022-08-30T04:40:10.023Z,16.60
2022-08-30T04:43:14.405Z,16.50
2022-08-30T04:46:18.184Z,16.50
2022-08-30T04:49:21.652Z,16.50
2022-08-30T04:52:25.105Z,16.40
2022-08-30T04:55:28.215Z,16.40
2022-08-30T04:58:32.875Z,16.40
2022-08-30T05:01:37.197Z,16.40
2022-08-30T05:05:02.858Z,16.40
2022-08-30T05:08:06.146Z,16.40
2022-08-30T05:11:09.690Z,16.40
2022-08-30T05:14:14.561Z,16.30
2022-08-30T05:17:17.584Z,16.40
2022-08-30T05:20:20.708Z,16.40
2022-08-30T05:23:23.718Z,16.40
2022-08-30T05:26:29.526Z,16.40
2022-08-30T05:29:34.504Z,16.40
2022-08-30T05:32:37.526Z,16.40
2022-08-30T05:35:40.805Z,16.40
2022-08-30T05:38:44.353Z,16.50
2022-08-30T05:41:47.358Z,16.60
2022-08-30T05:44:54.091Z,16.60
2022-08-30T05:47:57.085Z,16.60
2022-08-30T05:51:05.231Z,16.70
2022-08-30T05:54:08.392Z,16.70
2022-08-30T05:57:11.501Z,16.80
2022-08-30T06:00:18.850Z,16.80
2022-08-30T06:03:21.921Z,16.80
2022-08-30T06:06:25.446Z,16.90
2022-08-30T06:09:28.492Z,16.90
2022-08-30T06:12:31.533Z,16.90
2022-08-30T06:15:35.979Z,16.90
2022-08-30T06:18:39.005Z,17.00
2022-08-30T06:21:43.197Z,17.10
2022-08-30T06:25:01.153Z,17.20
2022-08-30T06:28:04.915Z,17.20
2022-08-30T06:31:10.581Z,17.30
2022-08-30T06:34:13.879Z,17.50
2022-08-30T06:37:25.590Z,17.50
2022-08-30T06:40:33.464Z,17.70
2022-08-30T06:43:37.434Z,17.80
2022-08-30T06:46:41.981Z,17.90
2022-08-30T06:49:45.052Z,17.90
2022-08-30T06:52:48.466Z,18.00
2022-08-30T06:55:57.795Z,18.00
2022-08-30T06:59:01.004Z,18.00
2022-08-30T07:02:06.330Z,18.10
2022-08-30T07:05:15.382Z,18.10
2022-08-30T07:08:22.975Z,18.20
2022-08-30T07:11:28.595Z,18.30
2022-08-30T07:14:31.603Z,18.30
2022-08-30T07:17:50.357Z,18.40
2022-08-30T07:20:53.383Z,18.40
2022-08-30T07:24:01.556Z,18.50
2022-08-30T07:27:04.720Z,18.50
2022-08-30T07:30:09.200Z,18.60
2022-08-30T07:33:13.971Z,18.70
2022-08-30T07:36:18.333Z,18.70
2022-08-30T07:39:21.405Z,18.70
2022-08-30T07:42:24.424Z,18.60
2022-08-30T07:45:27.416Z,18.60
2022-08-30T07:48:31.806Z,18.70
2022-08-30T07:51:34.852Z,18.90
2022-08-30T07:54:37.894Z,18.90
2022-08-30T07:57:40.944Z,19.00
2022-08-30T08:00:44.074Z,19.10
2022-08-30T08:03:50.249Z,19.10
2022-08-30T08:06:54.564Z,19.10
2022-08-30T08:09:57.582Z,19.10
2022-08-30T08:13:00.883Z,19.20
2022-08-30T08:16:04.485Z,19.30
2022-08-30T08:19:09.321Z,19.40
2022-08-30T08:22:21.567Z,19.50
2022-08-30T08:25:25.022Z,19.50
2022-08-30T08:28:28.087Z,19.50
2022-08-30T08:31:33.239Z,19.60
2022-08-30T08:34:38.755Z,19.70
2022-08-30T08:37:42.030Z,19.80
2022-08-30T08:41:00.867Z,19.90
2022-08-30T08:44:09.718Z,19.80
2022-08-30T08:47:15.887Z,19.90
2022-08-30T08:50:22.343Z,20.00
2022-08-30T08:53:46.116Z,20.10
2022-08-30T08:56:50.084Z,20.30
2022-08-30T08:59:54.419Z,20.40
2022-08-30T09:03:00.815Z,20.60
2022-08-30T09:06:10.082Z,20.70
2022-08-30T09:09:13.562Z,20.60
2022-08-30T09:12:17.058Z,20.70
2022-08-30T09:15:22.755Z,20.70
2022-08-30T09:18:42.114Z,20.60
2022-08-30T09:21:58.334Z,20.60
2022-08-30T09:25:05.580Z,20.60
2022-08-30T09:28:16.279Z,20.70
2022-08-30T09:31:21.481Z,20.80
2022-08-30T09:34:26.739Z,20.80
2022-08-30T09:37:35.743Z,20.80
2022-08-30T09:40:41.015Z,20.90
2022-08-30T09:43:44.351Z,21.10
2022-08-30T09:46:50.989Z,21.10
2022-08-30T09:50:04.888Z,21.10
2022-08-30T09:53:23.478Z,21.00
2022-08-30T09:56:34.431Z,20.90
2022-08-30T09:59:45.927Z,20.90
2022-08-30T10:03:04.379Z,21.00
2022-08-30T10:06:12.749Z,21.00
2022-08-30T10:09:28.243Z,21.00
2022-08-30T10:12:40.448Z,21.00
2022-08-30T10:15:49.538Z,21.00
2022-08-30T10:19:01.109Z,20.90
2022-08-30T10:22:13.698Z,20.90
2022-08-30T10:25:22.362Z,21.00
2022-08-30T10:28:31.929Z,20.90
2022-08-30T10:31:41.294Z,21.00
2022-08-30T10:34:51.043Z,21.00
2022-08-30T10:37:59.417Z,21.20
2022-08-30T10:41:24.189Z,21.10
2022-08-30T10:44:30.531Z,21.30
2022-08-30T10:47:38.435Z,21.30
2022-08-30T10:50:45.026Z,21.30
2022-08-30T10:53:52.260Z,21.60
2022-08-30T10:56:57.001Z,22.10
2022-08-30T11:00:06.141Z,22.70
2022-08-30T11:03:42.439Z,22.90
2022-08-30T11:06:56.351Z,23.10
2022-08-30T11:10:22.712Z,23.30
2022-08-30T11:13:29.802Z,22.90
2022-08-30T11:16:38.372Z,22.50
2022-08-30T11:19:42.572Z,22.40
2022-08-30T11:23:11.422Z,22.50
2022-08-30T11:26:53.074Z,22.50
2022-08-30T11:29:57.449Z,22.40
2022-08-30T11:33:07.948Z,22.30
2022-08-30T11:36:38.675Z,22.30
2022-08-30T11:40:02.050Z,22.40
2022-08-30T11:43:40.148Z,22.20
2022-08-30T11:46:45.411Z,22.20
2022-08-30T11:50:00.816Z,22.20
2022-08-30T11:53:14.440Z,22.40
2022-08-30T11:56:23.561Z,22.50
2022-08-30T11:59:35.372Z,22.60
2022-08-30T12:02:48.386Z,22.50
2022-08-30T12:06:00.336Z,22.60
2022-08-30T12:09:03.397Z,22.70
2022-08-30T12:12:33.871Z,22.70
2022-08-30T12:15:54.340Z,22.70
2022-08-30T12:19:04.552Z,22.70
2022-08-30T12:22:08.767Z,23.00
2022-08-30T12:25:21.394Z,23.10
2022-08-30T12:28:27.105Z,22.90
2022-08-30T12:31:30.414Z,22.90
2022-08-30T12:34:38.161Z,23.20
2022-08-30T12:37:42.397Z,23.40
2022-08-30T12:40:52.568Z,24.10
2022-08-30T12:43:58.437Z,25.40
2022-08-30T12:47:04.719Z,26.80
2022-08-30T12:50:12.027Z,27.70
2022-08-30T12:53:25.011Z,28.30
2022-08-30T12:56:49.888Z,27.80
2022-08-30T13:00:01.813Z,27.10
2022-08-30T13:03:16.233Z,25.90
2022-08-30T13:06:39.092Z,25.10
2022-08-30T13:09:44.050Z,24.60
2022-08-30T13:13:01.911Z,24.20
2022-08-30T13:16:13.660Z,24.70
2022-08-30T13:19:32.492Z,25.60
2022-08-30T13:22:37.261Z,25.70
2022-08-30T13:25:41.260Z,25.30
2022-08-30T13:28:49.090Z,24.90
2022-08-30T13:31:53.590Z,24.30
2022-08-30T13:34:56.666Z,24.00
2022-08-30T13:38:02.233Z,23.90
2022-08-30T13:41:05.281Z,23.50
2022-08-30T13:44:11.653Z,23.30
2022-08-30T13:47:34.788Z,23.10
2022-08-30T13:50:38.507Z,23.20
2022-08-30T13:53:57.255Z,23.30
2022-08-30T13:57:02.184Z,23.30
2022-08-30T14:00:10.120Z,23.40
2022-08-30T14:03:17.284Z,23.40
2022-08-30T14:06:33.092Z,23.30
2022-08-30T14:09:37.104Z,23.30
2022-08-30T14:13:02.611Z,23.40
2022-08-30T14:19:31.095Z,23.20
2022-08-30T14:22:34.145Z,23.20
2022-08-30T14:25:37.200Z,23.10
2022-08-30T14:28:40.213Z,23.10
2022-08-30T14:31:44.560Z,23.10
2022-08-30T14:34:51.262Z,23.10
2022-08-30T14:37:54.331Z,23.10
2022-08-30T14:40:57.373Z,23.10
2022-08-30T14:44:04.202Z,23.10
2022-08-30T14:47:08.349Z,22.80
2022-08-30T14:50:12.832Z,22.80
2022-08-30T14:53:15.955Z,22.70
2022-08-30T14:56:21.820Z,22.70
2022-08-30T14:59:26.025Z,22.80
2022-08-30T15:02:29.038Z,22.90
2022-08-30T15:05:33.483Z,22.80
2022-08-30T15:08:37.796Z,22.70
2022-08-30T15:11:43.358Z,22.40
2022-08-30T15:14:47.190Z,22.30
2022-08-30T15:17:50.870Z,22.20
2022-08-30T15:20:55.269Z,22.10
2022-08-30T15:24:00.818Z,21.90
2022-08-30T15:27:05.090Z,21.90
2022-08-30T15:30:11.014Z,21.80
2022-08-30T15:33:14.196Z,21.90
2022-08-30T15:36:19.142Z,22.00
2022-08-30T15:39:22.156Z,22.00
2022-08-30T15:42:28.003Z,22.00
2022-08-30T15:45:31.501Z,22.00
2022-08-30T15:48:36.225Z,22.00
2022-08-30T15:51:46.133Z,21.90
2022-08-30T15:54:49.376Z,21.80
2022-08-30T15:57:52.899Z,21.80
2022-08-30T16:00:55.897Z,21.80
2022-08-30T16:03:59.273Z,21.80
2022-08-30T16:07:04.050Z,21.70
2022-08-30T16:10:08.344Z,21.70
2022-08-30T16:13:11.404Z,21.70
2022-08-30T16:16:14.499Z,21.60
2022-08-30T16:19:17.648Z,21.60
2022-08-30T16:22:23.195Z,21.50
2022-08-30T16:25:26.627Z,21.40
2022-08-30T16:28:44.044Z,21.30
2022-08-30T16:31:47.367Z,21.30
2022-08-30T16:34:50.604Z,21.20
2022-08-30T16:37:55.000Z,21.10
2022-08-30T16:40:58.470Z,21.10
2022-08-30T16:44:03.642Z,21.00
2022-08-30T16:47:13.222Z,21.00
2022-08-30T16:50:18.468Z,20.90
2022-08-30T16:53:23.031Z,20.90
2022-08-30T16:56:29.707Z,20.80
2022-08-30T16:59:32.999Z,20.80
2022-08-30T17:02:36.118Z,20.70
2022-08-30T17:05:39.193Z,20.70
2022-08-30T17:08:43.608Z,20.60
2022-08-30T17:11:47.089Z,20.60
2022-08-30T17:14:50.165Z,20.50
2022-08-30T17:17:53.187Z,20.50
2022-08-30T17:20:56.202Z,20.40
2022-08-30T17:24:02.302Z,20.30
2022-08-30T17:27:06.963Z,20.30
2022-08-30T17:30:11.962Z,20.20
2022-08-30T17:33:15.696Z,20.20
2022-08-30T17:36:20.857Z,20.20
2022-08-30T17:39:25.486Z,20.10
2022-08-30T17:42:29.751Z,20.00
2022-08-30T17:45:33.027Z,19.90
2022-08-30T17:48:37.441Z,19.90
2022-08-30T17:51:42.651Z,19.90
2022-08-30T17:54:47.054Z,19.80
2022-08-30T17:57:50.939Z,19.60
2022-08-30T18:00:56.954Z,19.50
2022-08-30T18:04:02.117Z,19.40
2022-08-30T18:07:12.287Z,19.40
2022-08-30T18:10:16.825Z,19.30
2022-08-30T18:13:19.846Z,19.20
2022-08-30T18:16:26.457Z,19.20
2022-08-30T18:19:32.016Z,19.10
2022-08-30T18:22:35.352Z,19.10
2022-08-30T18:25:39.736Z,19.00
2022-08-30T18:28:43.235Z,18.90
2022-08-30T18:31:47.282Z,18.80
2022-08-30T18:34:50.325Z,18.70
2022-08-30T18:37:53.398Z,18.70
2022-08-30T18:41:01.433Z,18.70
2022-08-30T18:44:26.254Z,18.70
2022-08-30T18:47:27.689Z,18.50
2022-08-30T18:50:31.172Z,18.50
2022-08-30T18:53:35.330Z,18.40
2022-08-30T18:56:40.755Z,18.40
2022-08-30T18:59:48.243Z,18.30
2022-08-30T19:02:51.286Z,18.20
2022-08-30T19:05:54.296Z,18.20
2022-08-30T19:08:57.335Z,18.20
2022-08-30T19:12:09.426Z,18.10
2022-08-30T19:15:13.935Z,18.10
2022-08-30T19:18:17.720Z,17.90
2022-08-30T19:21:21.316Z,17.90
2022-08-30T19:24:24.350Z,17.80
2022-08-30T19:27:38.067Z,17.80
2022-08-30T19:30:43.561Z,17.70
2022-08-30T19:33:47.363Z,17.60
2022-08-30T19:36:50.355Z,17.60
2022-08-30T19:39:53.566Z,17.60
2022-08-30T19:42:58.306Z,17.50
2022-08-30T19:46:01.568Z,17.40
2022-08-30T19:49:08.433Z,17.30
2022-08-30T19:52:12.611Z,17.30
2022-08-30T19:55:16.360Z,17.20
2022-08-30T19:58:20.814Z,17.20
2022-08-30T20:04:47.897Z,17.10
2022-08-30T20:07:51.522Z,17.00
2022-08-30T20:10:54.711Z,17.00
2022-08-30T20:13:59.343Z,17.00
2022-08-30T20:17:02.564Z,16.90
2022-08-30T20:20:08.395Z,16.90
2022-08-30T20:23:14.396Z,16.80
2022-08-30T20:26:18.960Z,16.70
2022-08-30T20:29:23.279Z,16.70
2022-08-30T20:32:26.525Z,16.70
2022-08-30T20:35:29.785Z,16.60
2022-08-30T20:38:33.014Z,16.50
2022-08-30T20:41:36.659Z,16.50
2022-08-30T20:44:41.047Z,16.50
2022-08-30T20:47:45.044Z,16.50
2022-08-30T20:50:48.469Z,16.50
2022-08-30T20:53:51.626Z,16.50
2022-08-30T20:56:54.628Z,16.50
2022-08-30T21:00:00.723Z,16.30
2022-08-30T21:03:04.068Z,16.30
2022-08-30T21:06:12.593Z,16.30
2022-08-30T21:09:16.094Z,16.20
2022-08-30T21:12:19.718Z,16.20
2022-08-30T21:15:37.207Z,16.10
2022-08-30T21:18:41.076Z,16.10
2022-08-30T21:21:44.138Z,16.00
2022-08-30T21:24:47.195Z,16.00
2022-08-30T21:27:50.203Z,15.90
2022-08-30T21:31:05.060Z,15.90
2022-08-30T21:34:08.924Z,15.80
2022-08-30T21:37:19.339Z,15.70
2022-08-30T21:40:22.601Z,15.70
2022-08-30T21:43:25.614Z,15.60
2022-08-30T21:46:32.286Z,15.60
2022-08-30T21:49:35.706Z,15.70
2022-08-30T21:52:38.798Z,15.70
2022-08-30T21:55:41.777Z,15.80
2022-08-30T21:58:47.265Z,15.80
2022-08-30T22:01:51.848Z,15.80
2022-08-30T22:04:55.925Z,15.70
2022-08-30T22:07:59.494Z,15.70
2022-08-30T22:11:02.502Z,15.70
2022-08-30T22:14:06.147Z,15.70
2022-08-30T22:17:10.625Z,15.70
2022-08-30T22:20:18.713Z,15.70
2022-08-30T22:23:21.925Z,15.60
2022-08-30T22:26:26.127Z,15.50
2022-08-30T22:29:30.059Z,15.60
2022-08-30T22:32:34.377Z,15.60
2022-08-30T22:35:37.791Z,15.50
2022-08-30T22:38:41.317Z,15.50
2022-08-30T22:41:44.353Z,15.40
2022-08-30T22:44:48.342Z,15.40
2022-08-30T22:47:52.653Z,15.40
2022-08-30T22:50:55.676Z,15.30
2022-08-30T22:53:58.714Z,15.30
2022-08-30T22:57:01.719Z,15.30
2022-08-30T23:00:11.610Z,15.20
2022-08-30T23:03:16.239Z,15.20
2022-08-30T23:06:19.846Z,15.10
2022-08-30T23:09:23.166Z,15.10
2022-08-30T23:12:26.194Z,15.10
2022-08-30T23:15:30.039Z,15.10
2022-08-30T23:18:35.608Z,15.00
2022-08-30T23:21:38.683Z,15.00
2022-08-30T23:24:59.566Z,15.00
2022-08-30T23:28:20.966Z,14.90
2022-08-30T23:31:41.741Z,14.90
2022-08-30T23:35:03.877Z,14.80
2022-08-30T23:38:24.827Z,14.80
2022-08-30T23:41:45.303Z,14.80
2022-08-30T23:45:06.869Z,14.70
2022-08-30T23:48:27.346Z,14.70
2022-08-30T23:51:49.218Z,14.70
2022-08-30T23:55:09.762Z,14.60
2022-08-30T23:58:30.205Z,14.60
